Terminal Aerodrome Forecast
Issued by NWS

Home | Current Version | Previous Version | Text Only | Print | Product List | Glossary On
Versions: 1 2 3 4 5 6 7 8 9 10 11 12 13 14 15 16 17
000
FTUS43 KDVN 270400 AAB
TAFCID
TAF AMD
KCID 270440Z 2705/2724 VRB03KT P6SM -RA BKN025 OVC040
     FM270600 VRB03KT 6SM -RA BR BKN018 OVC030
     FM270800 VRB03KT 4SM -RA BR OVC008
     FM271300 27012KT 5SM BR OVC012
     FM271600 29016G24KT P6SM BKN020=

USA.gov is the U.S. government's official web portal to all federal, state and local government web resources and services.